Terminal Aerodrome Forecast
Issued by NWS Pendleton, OR

Home | Current Version | Previous Version | Text Only | Print | Product List | Glossary On
Versions: 1 2 3 4 5 6 7 8 9 10 11 12 13 14 15 16 17 18 19 20 21 22 23 24
000
FTUS46 KPDT 142335
TAFPDT
TAF
KPDT 142335Z 1500/1524 31003KT P6SM SCT008 OVC010
      TEMPO 1500/1501 BKN008 OVC011
     FM150100 34004KT P6SM OVC008
     FM150700 13003KT 6SM BR OVC006
     FM151400 16003KT 3SM BR OVC003
     FM152000 29005KT 4SM -FZRA BR BKN006 OVC025=

USA.gov is the U.S. government's official web portal to all federal, state and local government web resources and services.